Collingswood, New Jersey
Current Conditions -  °F | °C
As of 10:54 PM on Saturday 24 Jan 2015 (Local Time) from KPHL Reporting Station
Few Clouds Few Clouds  
Wind Chill: 27°   Ceiling: Unl
Heat Index: 36°   Visibility: 10mi
Dew Point: 24°   Wind: 15mph
Humidity: 62%   Direction: 290°WNW
Pressure: 29.58"   Gusts: NA
Location:  39.92°N, 75.07°W
Report Text: KPHL 250354Z 29013KT 10SM FEW075 02/M04 A2958 RMK AO2 SLP015 T00221044
Loading
Personal Weather Stations






























Interactive Weather Map New forecast layout! Learn more

10-Day Weather Forecast

Advertisements
Track Severe Weather on mobile